Combine, Texas
Current Conditions -  °F | °C
As of 4:50 PM on Tuesday 27 Jan 2015 (Local Time) from KHQZ Reporting Station
Clear Clear  
Wind Chill: 75°   Ceiling: Unl
Heat Index: 75°   Visibility: 10mi
Dew Point: 36°   Wind: 3mph
Humidity: 24%   Direction: 180°S
Pressure: 30.1"   Gusts: NA
Location:  32.6388°N, 96.5631°W
Report Text: KHQZ 272250Z 18003KT 10SM CLR 24/02 A3010
Loading
Personal Weather Stations






























Interactive Weather Map New forecast layout! Learn more

10-Day Weather Forecast

Advertisements
Track Severe Weather on mobile